sensor_id;sensor_type;location;lat;lon;timestamp;pressure;altitude;pressure_sealevel;temperature;humidity
20115;BME280;10218;42.874;25.320;2022-08-01T00:02:14;96892.97;;;19.20;100.00
20115;BME280;10218;42.874;25.320;2022-08-01T00:04:41;96897.50;;;18.97;100.00
20115;BME280;10218;42.874;25.320;2022-08-01T00:07:08;96887.56;;;19.20;100.00
20115;BME280;10218;42.874;25.320;2022-08-01T00:09:35;96892.88;;;18.86;100.00
20115;BME280;10218;42.874;25.320;2022-08-01T00:12:03;96900.72;;;18.64;100.00
20115;BME280;10218;42.874;25.320;2022-08-01T00:14:32;96890.25;;;19.09;100.00
20115;BME280;10218;42.874;25.320;2022-08-01T00:17:00;96888.50;;;19.14;100.00
20115;BME280;10218;42.874;25.320;2022-08-01T00:19:32;96880.97;;;19.16;100.00
20115;BME280;10218;42.874;25.320;2022-08-01T00:21:59;96872.28;;;19.38;100.00
20115;BME280;10218;42.874;25.320;2022-08-01T00:24:27;96875.94;;;19.43;100.00
20115;BME280;10218;42.874;25.320;2022-08-01T00:26:55;96873.78;;;19.22;100.00
20115;BME280;10218;42.874;25.320;2022-08-01T00:29:23;96880.91;;;19.05;100.00
20115;BME280;10218;42.874;25.320;2022-08-01T00:31:50;96873.44;;;19.18;100.00
20115;BME280;10218;42.874;25.320;2022-08-01T00:34:17;96854.41;;;19.60;100.00
20115;BME280;10218;42.874;25.320;2022-08-01T00:36:45;96853.22;;;19.68;100.00
20115;BME280;10218;42.874;25.320;2022-08-01T00:39:14;96848.00;;;19.43;100.00
20115;BME280;10218;42.874;25.320;2022-08-01T00:41:42;96848.81;;;19.20;100.00
20115;BME280;10218;42.874;25.320;2022-08-01T00:44:09;96836.44;;;19.12;100.00
20115;BME280;10218;42.874;25.320;2022-08-01T00:46:38;96842.28;;;18.86;100.00
20115;BME280;10218;42.874;25.320;2022-08-01T00:49:07;96843.34;;;18.85;100.00
20115;BME280;10218;42.874;25.320;2022-08-01T00:51:36;96844.25;;;18.67;100.00
20115;BME280;10218;42.874;25.320;2022-08-01T00:54:03;96835.94;;;18.92;100.00
20115;BME280;10218;42.874;25.320;2022-08-01T00:56:30;96828.19;;;18.84;100.00
20115;BME280;10218;42.874;25.320;2022-08-01T00:58:59;96838.09;;;19.02;100.00
20115;BME280;10218;42.874;25.320;2022-08-01T01:01:26;96825.31;;;19.55;100.00
20115;BME280;10218;42.874;25.320;2022-08-01T01:03:53;96830.59;;;19.39;100.00
20115;BME280;10218;42.874;25.320;2022-08-01T01:09:30;96822.25;;;19.63;100.00
20115;BME280;10218;42.874;25.320;2022-08-01T01:17:58;96831.63;;;19.84;100.00
20115;BME280;10218;42.874;25.320;2022-08-01T01:20:41;96830.03;;;19.60;100.00
20115;BME280;10218;42.874;25.320;2022-08-01T01:32:17;96835.34;;;19.55;100.00
20115;BME280;10218;42.874;25.320;2022-08-01T01:34:48;96826.31;;;19.89;100.00
20115;BME280;10218;42.874;25.320;2022-08-01T01:37:20;96826.22;;;20.36;96.87
20115;BME280;10218;42.874;25.320;2022-08-01T01:39:50;96817.59;;;20.39;97.51
20115;BME280;10218;42.874;25.320;2022-08-01T01:42:19;96808.63;;;20.38;93.67
20115;BME280;10218;42.874;25.320;2022-08-01T01:44:49;96808.78;;;20.20;94.44
20115;BME280;10218;42.874;25.320;2022-08-01T01:47:18;96810.03;;;20.41;87.98
20115;BME280;10218;42.874;25.320;2022-08-01T01:49:47;96814.44;;;20.19;87.20
20115;BME280;10218;42.874;25.320;2022-08-01T01:52:17;96802.44;;;20.15;97.09
20115;BME280;10218;42.874;25.320;2022-08-01T01:54:49;96812.97;;;19.99;96.03
20115;BME280;10218;42.874;25.320;2022-08-01T01:57:18;96818.28;;;20.06;95.31
20115;BME280;10218;42.874;25.320;2022-08-01T01:59:47;96808.94;;;20.02;91.65
20115;BME280;10218;42.874;25.320;2022-08-01T02:02:17;96795.22;;;20.20;89.11
20115;BME280;10218;42.874;25.320;2022-08-01T02:04:47;96793.16;;;19.99;89.66
20115;BME280;10218;42.874;25.320;2022-08-01T02:07:20;96790.91;;;20.07;84.70
20115;BME280;10218;42.874;25.320;2022-08-01T02:09:48;96790.06;;;20.47;72.43
20115;BME280;10218;42.874;25.320;2022-08-01T02:12:17;96769.81;;;20.38;78.09
20115;BME280;10218;42.874;25.320;2022-08-01T02:14:46;96763.41;;;20.16;74.33
20115;BME280;10218;42.874;25.320;2022-08-01T02:17:17;96791.87;;;20.58;66.60
20115;BME280;10218;42.874;25.320;2022-08-01T02:19:46;96792.37;;;20.55;70.32
20115;BME280;10218;42.874;25.320;2022-08-01T02:22:27;96793.50;;;20.02;86.48
20115;BME280;10218;42.874;25.320;2022-08-01T02:25:00;96785.69;;;19.78;100.00
20115;BME280;10218;42.874;25.320;2022-08-01T02:27:46;96791.81;;;19.61;100.00
20115;BME280;10218;42.874;25.320;2022-08-01T02:30:19;96782.19;;;19.66;100.00
20115;BME280;10218;42.874;25.320;2022-08-01T02:32:48;96785.22;;;19.69;100.00
20115;BME280;10218;42.874;25.320;2022-08-01T02:35:26;96789.72;;;19.52;100.00
20115;BME280;10218;42.874;25.320;2022-08-01T02:37:56;96789.94;;;19.27;100.00
20115;BME280;10218;42.874;25.320;2022-08-01T02:40:29;96791.38;;;19.18;100.00
20115;BME280;10218;42.874;25.320;2022-08-01T02:43:02;96782.28;;;19.12;100.00
20115;BME280;10218;42.874;25.320;2022-08-01T02:45:31;96788.88;;;18.93;100.00
20115;BME280;10218;42.874;25.320;2022-08-01T02:48:08;96774.66;;;18.98;100.00
20115;BME280;10218;42.874;25.320;2022-08-01T02:50:37;96773.69;;;19.15;100.00
20115;BME280;10218;42.874;25.320;2022-08-01T02:53:06;96775.00;;;19.25;99.61
20115;BME280;10218;42.874;25.320;2022-08-01T02:55:38;96763.97;;;19.89;87.88
20115;BME280;10218;42.874;25.320;2022-08-01T02:58:07;96769.53;;;19.83;92.99
20115;BME280;10218;42.874;25.320;2022-08-01T03:00:37;96773.22;;;19.42;97.62
20115;BME280;10218;42.874;25.320;2022-08-01T03:03:06;96768.16;;;19.57;97.99
20115;BME280;10218;42.874;25.320;2022-08-01T03:05:35;96758.88;;;19.18;100.00
20115;BME280;10218;42.874;25.320;2022-08-01T03:08:04;96771.22;;;19.02;100.00
20115;BME280;10218;42.874;25.320;2022-08-01T03:10:35;96767.91;;;18.77;100.00
20115;BME280;10218;42.874;25.320;2022-08-01T03:13:05;96760.75;;;19.06;100.00
20115;BME280;10218;42.874;25.320;2022-08-01T03:15:35;96759.19;;;18.75;100.00
20115;BME280;10218;42.874;25.320;2022-08-01T03:18:07;96758.06;;;18.94;100.00
20115;BME280;10218;42.874;25.320;2022-08-01T03:20:36;96757.22;;;18.94;100.00
20115;BME280;10218;42.874;25.320;2022-08-01T03:23:09;96763.59;;;18.99;100.00
20115;BME280;10218;42.874;25.320;2022-08-01T03:25:39;96758.28;;;18.93;100.00
20115;BME280;10218;42.874;25.320;2022-08-01T03:28:08;96770.03;;;19.21;100.00
20115;BME280;10218;42.874;25.320;2022-08-01T03:30:37;96768.41;;;19.09;100.00
20115;BME280;10218;42.874;25.320;2022-08-01T03:33:08;96759.22;;;19.21;100.00
20115;BME280;10218;42.874;25.320;2022-08-01T03:35:39;96768.50;;;18.91;100.00
20115;BME280;10218;42.874;25.320;2022-08-01T03:38:11;96761.81;;;18.93;100.00
20115;BME280;10218;42.874;25.320;2022-08-01T03:40:55;96731.19;;;18.58;100.00
20115;BME280;10218;42.874;25.320;2022-08-01T03:43:32;96765.31;;;18.70;100.00
20115;BME280;10218;42.874;25.320;2022-08-01T03:46:10;96763.34;;;18.89;100.00
20115;BME280;10218;42.874;25.320;2022-08-01T03:48:43;96760.97;;;18.81;100.00
20115;BME280;10218;42.874;25.320;2022-08-01T03:51:14;96764.63;;;18.87;100.00
20115;BME280;10218;42.874;25.320;2022-08-01T03:53:45;96752.75;;;18.99;100.00
20115;BME280;10218;42.874;25.320;2022-08-01T03:56:18;96757.31;;;18.75;100.00
20115;BME280;10218;42.874;25.320;2022-08-01T03:58:47;96763.22;;;18.84;100.00
20115;BME280;10218;42.874;25.320;2022-08-01T04:01:17;96755.81;;;19.03;100.00
20115;BME280;10218;42.874;25.320;2022-08-01T04:03:45;96750.59;;;18.90;100.00
20115;BME280;10218;42.874;25.320;2022-08-01T04:06:12;96732.72;;;19.12;98.32
20115;BME280;10218;42.874;25.320;2022-08-01T04:08:41;96748.97;;;19.12;100.00
20115;BME280;10218;42.874;25.320;2022-08-01T04:11:09;96739.34;;;19.04;100.00
20115;BME280;10218;42.874;25.320;2022-08-01T04:13:36;96757.56;;;18.97;100.00
20115;BME280;10218;42.874;25.320;2022-08-01T04:16:04;96745.69;;;19.21;100.00
20115;BME280;10218;42.874;25.320;2022-08-01T04:18:32;96740.63;;;19.13;100.00
20115;BME280;10218;42.874;25.320;2022-08-01T04:20:59;96753.81;;;19.45;100.00
20115;BME280;10218;42.874;25.320;2022-08-01T04:23:27;96756.31;;;19.86;92.45
20115;BME280;10218;42.874;25.320;2022-08-01T04:25:59;96751.56;;;19.93;91.48
20115;BME280;10218;42.874;25.320;2022-08-01T04:28:30;96764.13;;;19.71;98.32
20115;BME280;10218;42.874;25.320;2022-08-01T04:31:00;96757.00;;;19.93;95.95
20115;BME280;10218;42.874;25.320;2022-08-01T04:33:30;96756.03;;;19.99;96.27
20115;BME280;10218;42.874;25.320;2022-08-01T04:35:59;96759.13;;;19.91;96.95
20115;BME280;10218;42.874;25.320;2022-08-01T04:38:33;96753.87;;;20.01;95.63
20115;BME280;10218;42.874;25.320;2022-08-01T04:41:02;96766.50;;;20.07;88.38
20115;BME280;10218;42.874;25.320;2022-08-01T04:43:29;96767.06;;;20.83;76.48
20115;BME280;10218;42.874;25.320;2022-08-01T04:45:58;96771.06;;;20.47;79.39
20115;BME280;10218;42.874;25.320;2022-08-01T04:48:25;96767.41;;;21.03;77.82
20115;BME280;10218;42.874;25.320;2022-08-01T04:50:53;96776.63;;;20.85;79.02
20115;BME280;10218;42.874;25.320;2022-08-01T04:53:22;96772.19;;;21.13;75.27
20115;BME280;10218;42.874;25.320;2022-08-01T04:55:49;96765.31;;;21.44;65.39
20115;BME280;10218;42.874;25.320;2022-08-01T04:58:17;96773.72;;;21.09;63.53
20115;BME280;10218;42.874;25.320;2022-08-01T05:00:48;96774.34;;;21.27;61.49
20115;BME280;10218;42.874;25.320;2022-08-01T05:03:15;96776.13;;;21.77;59.00
20115;BME280;10218;42.874;25.320;2022-08-01T05:05:43;96773.72;;;21.81;59.59
20115;BME280;10218;42.874;25.320;2022-08-01T05:08:11;96758.91;;;21.71;62.71
20115;BME280;10218;42.874;25.320;2022-08-01T05:10:45;96770.25;;;21.63;59.20
20115;BME280;10218;42.874;25.320;2022-08-01T05:13:17;96768.28;;;21.81;58.82
20115;BME280;10218;42.874;25.320;2022-08-01T05:15:44;96766.53;;;22.13;59.34
20115;BME280;10218;42.874;25.320;2022-08-01T05:18:12;96775.34;;;22.25;58.20
20115;BME280;10218;42.874;25.320;2022-08-01T05:20:42;96769.63;;;22.22;59.04
20115;BME280;10218;42.874;25.320;2022-08-01T05:23:09;96768.00;;;22.47;57.32
20115;BME280;10218;42.874;25.320;2022-08-01T05:25:37;96774.72;;;22.67;55.92
20115;BME280;10218;42.874;25.320;2022-08-01T05:28:14;96762.84;;;22.51;56.69
20115;BME280;10218;42.874;25.320;2022-08-01T05:30:42;96768.97;;;22.63;54.26
20115;BME280;10218;42.874;25.320;2022-08-01T05:33:10;96766.66;;;22.77;54.33
20115;BME280;10218;42.874;25.320;2022-08-01T05:35:37;96754.16;;;23.13;51.87
20115;BME280;10218;42.874;25.320;2022-08-01T05:38:04;96761.72;;;23.00;51.14
20115;BME280;10218;42.874;25.320;2022-08-01T05:40:32;96769.84;;;23.74;49.17
20115;BME280;10218;42.874;25.320;2022-08-01T05:42:59;96737.16;;;22.69;49.29
20115;BME280;10218;42.874;25.320;2022-08-01T05:45:26;96766.47;;;23.57;47.69
20115;BME280;10218;42.874;25.320;2022-08-01T05:47:54;96760.56;;;22.96;46.73
20115;BME280;10218;42.874;25.320;2022-08-01T05:50:22;96749.94;;;22.95;46.71
20115;BME280;10218;42.874;25.320;2022-08-01T05:52:48;96766.53;;;23.67;46.42
20115;BME280;10218;42.874;25.320;2022-08-01T05:55:16;96768.63;;;24.02;45.22
20115;BME280;10218;42.874;25.320;2022-08-01T05:57:43;96766.38;;;23.89;45.25
20115;BME280;10218;42.874;25.320;2022-08-01T06:00:11;96780.00;;;23.89;45.30
20115;BME280;10218;42.874;25.320;2022-08-01T06:02:41;96776.72;;;23.40;45.36
20115;BME280;10218;42.874;25.320;2022-08-01T06:05:11;96774.78;;;23.82;45.26
20115;BME280;10218;42.874;25.320;2022-08-01T06:10:08;96776.72;;;23.82;44.36
20115;BME280;10218;42.874;25.320;2022-08-01T06:12:36;96779.06;;;23.68;44.71
20115;BME280;10218;42.874;25.320;2022-08-01T06:15:04;96784.50;;;24.15;44.04
20115;BME280;10218;42.874;25.320;2022-08-01T06:17:33;96781.66;;;23.90;43.85
20115;BME280;10218;42.874;25.320;2022-08-01T06:20:00;96769.53;;;24.33;43.07
20115;BME280;10218;42.874;25.320;2022-08-01T06:22:27;96771.06;;;24.96;43.29
20115;BME280;10218;42.874;25.320;2022-08-01T06:24:55;96773.66;;;24.36;43.50
20115;BME280;10218;42.874;25.320;2022-08-01T06:27:22;96780.31;;;24.03;43.87
20115;BME280;10218;42.874;25.320;2022-08-01T06:29:51;96778.00;;;23.69;44.72
20115;BME280;10218;42.874;25.320;2022-08-01T06:32:22;96772.41;;;23.96;44.53
20115;BME280;10218;42.874;25.320;2022-08-01T06:34:50;96773.06;;;23.24;45.25
20115;BME280;10218;42.874;25.320;2022-08-01T06:37:17;96761.50;;;24.01;44.21
20115;BME280;10218;42.874;25.320;2022-08-01T06:39:44;96764.81;;;24.13;44.33
20115;BME280;10218;42.874;25.320;2022-08-01T06:42:11;96761.47;;;24.68;42.64
20115;BME280;10218;42.874;25.320;2022-08-01T06:44:39;96778.75;;;24.12;43.53
20115;BME280;10218;42.874;25.320;2022-08-01T06:47:06;96779.56;;;23.55;44.07
20115;BME280;10218;42.874;25.320;2022-08-01T06:49:34;96768.34;;;24.09;43.59
20115;BME280;10218;42.874;25.320;2022-08-01T06:52:06;96766.53;;;24.29;42.35
20115;BME280;10218;42.874;25.320;2022-08-01T06:54:40;96774.78;;;24.50;42.72
20115;BME280;10218;42.874;25.320;2022-08-01T06:57:08;96757.13;;;25.03;41.05
20115;BME280;10218;42.874;25.320;2022-08-01T06:59:35;96773.94;;;24.39;42.48
20115;BME280;10218;42.874;25.320;2022-08-01T07:02:07;96727.84;;;24.48;42.27
20115;BME280;10218;42.874;25.320;2022-08-01T07:04:34;96765.28;;;24.67;42.10
20115;BME280;10218;42.874;25.320;2022-08-01T07:07:02;96760.63;;;24.63;42.12
20115;BME280;10218;42.874;25.320;2022-08-01T07:09:34;96777.47;;;25.96;40.83
20115;BME280;10218;42.874;25.320;2022-08-01T07:12:05;96779.81;;;24.93;41.38
20115;BME280;10218;42.874;25.320;2022-08-01T07:14:47;96767.19;;;24.82;42.19
20115;BME280;10218;42.874;25.320;2022-08-01T07:17:43;96744.53;;;25.27;40.85
20115;BME280;10218;42.874;25.320;2022-08-01T07:20:16;96760.06;;;25.67;40.82
20115;BME280;10218;42.874;25.320;2022-08-01T07:22:43;96776.78;;;25.30;40.98
20115;BME280;10218;42.874;25.320;2022-08-01T07:25:10;96775.38;;;24.62;42.24
20115;BME280;10218;42.874;25.320;2022-08-01T07:27:38;96769.97;;;25.07;40.97
20115;BME280;10218;42.874;25.320;2022-08-01T07:30:06;96755.22;;;24.88;41.61
20115;BME280;10218;42.874;25.320;2022-08-01T07:32:33;96763.41;;;25.24;41.41
20115;BME280;10218;42.874;25.320;2022-08-01T07:35:04;96761.78;;;24.92;41.49
20115;BME280;10218;42.874;25.320;2022-08-01T07:37:31;96760.53;;;25.94;39.91
20115;BME280;10218;42.874;25.320;2022-08-01T07:39:58;96751.19;;;26.06;40.30
20115;BME280;10218;42.874;25.320;2022-08-01T07:42:28;96752.56;;;25.98;39.95
20115;BME280;10218;42.874;25.320;2022-08-01T07:44:56;96746.97;;;26.72;39.28
20115;BME280;10218;42.874;25.320;2022-08-01T07:47:25;96746.31;;;25.92;40.44
20115;BME280;10218;42.874;25.320;2022-08-01T07:50:02;96754.94;;;26.74;39.32
20115;BME280;10218;42.874;25.320;2022-08-01T07:52:29;96744.56;;;27.05;38.99
20115;BME280;10218;42.874;25.320;2022-08-01T07:55:00;96749.62;;;25.84;40.09
20115;BME280;10218;42.874;25.320;2022-08-01T07:57:27;96743.97;;;25.25;41.32
20115;BME280;10218;42.874;25.320;2022-08-01T07:59:56;96761.06;;;26.61;39.96
20115;BME280;10218;42.874;25.320;2022-08-01T08:02:29;96761.28;;;26.10;40.06
20115;BME280;10218;42.874;25.320;2022-08-01T08:04:57;96742.50;;;25.88;40.38
20115;BME280;10218;42.874;25.320;2022-08-01T08:07:38;96741.09;;;26.55;39.23
20115;BME280;10218;42.874;25.320;2022-08-01T08:10:06;96756.94;;;26.58;39.58
20115;BME280;10218;42.874;25.320;2022-08-01T08:12:35;96754.69;;;27.38;38.52
20115;BME280;10218;42.874;25.320;2022-08-01T08:15:02;96750.91;;;27.00;38.37
20115;BME280;10218;42.874;25.320;2022-08-01T08:17:32;96739.63;;;27.64;38.25
20115;BME280;10218;42.874;25.320;2022-08-01T08:20:00;96749.09;;;27.19;38.99
20115;BME280;10218;42.874;25.320;2022-08-01T08:22:28;96746.59;;;27.23;38.65
20115;BME280;10218;42.874;25.320;2022-08-01T08:24:56;96747.09;;;26.57;39.91
20115;BME280;10218;42.874;25.320;2022-08-01T08:27:23;96748.63;;;26.73;39.75
20115;BME280;10218;42.874;25.320;2022-08-01T08:29:50;96761.44;;;27.22;38.86
20115;BME280;10218;42.874;25.320;2022-08-01T08:32:17;96767.13;;;27.31;38.89
20115;BME280;10218;42.874;25.320;2022-08-01T08:34:44;96759.44;;;27.61;38.47
20115;BME280;10218;42.874;25.320;2022-08-01T08:37:12;96762.41;;;27.36;38.74
20115;BME280;10218;42.874;25.320;2022-08-01T08:39:39;96756.03;;;27.70;38.35
20115;BME280;10218;42.874;25.320;2022-08-01T08:42:09;96753.37;;;28.12;38.17
20115;BME280;10218;42.874;25.320;2022-08-01T08:44:37;96769.22;;;27.10;38.51
20115;BME280;10218;42.874;25.320;2022-08-01T08:47:07;96758.28;;;28.15;38.07
20115;BME280;10218;42.874;25.320;2022-08-01T08:49:36;96759.84;;;28.82;37.27
20115;BME280;10218;42.874;25.320;2022-08-01T08:52:04;96754.03;;;28.46;36.74
20115;BME280;10218;42.874;25.320;2022-08-01T08:54:32;96763.16;;;26.20;40.54
20115;BME280;10218;42.874;25.320;2022-08-01T08:57:00;96772.19;;;27.13;39.58
20115;BME280;10218;42.874;25.320;2022-08-01T08:59:27;96767.16;;;27.83;38.50
20115;BME280;10218;42.874;25.320;2022-08-01T09:01:57;96769.59;;;28.32;37.89
20115;BME280;10218;42.874;25.320;2022-08-01T09:04:25;96768.09;;;27.97;38.04
20115;BME280;10218;42.874;25.320;2022-08-01T09:06:54;96775.78;;;26.16;40.71
20115;BME280;10218;42.874;25.320;2022-08-01T09:09:22;96762.63;;;26.23;41.05
20115;BME280;10218;42.874;25.320;2022-08-01T09:11:50;96773.09;;;26.01;41.15
20115;BME280;10218;42.874;25.320;2022-08-01T09:14:18;96763.88;;;26.90;41.20
20115;BME280;10218;42.874;25.320;2022-08-01T09:19:56;96754.91;;;28.23;37.96
20115;BME280;10218;42.874;25.320;2022-08-01T09:22:24;96739.94;;;27.87;39.36
20115;BME280;10218;42.874;25.320;2022-08-01T09:25:05;96765.91;;;26.20;41.25
20115;BME280;10218;42.874;25.320;2022-08-01T09:27:34;96786.09;;;26.88;40.32
20115;BME280;10218;42.874;25.320;2022-08-01T09:30:15;96759.91;;;27.92;38.69
20115;BME280;10218;42.874;25.320;2022-08-01T09:33:12;96771.50;;;27.32;38.29
20115;BME280;10218;42.874;25.320;2022-08-01T09:35:39;96776.53;;;27.48;38.70
20115;BME280;10218;42.874;25.320;2022-08-01T09:38:22;96742.47;;;26.97;39.59
20115;BME280;10218;42.874;25.320;2022-08-01T09:40:55;96742.03;;;27.42;39.28
20115;BME280;10218;42.874;25.320;2022-08-01T09:43:27;96765.28;;;27.21;39.40
20115;BME280;10218;42.874;25.320;2022-08-01T09:45:55;96754.13;;;27.41;39.05
20115;BME280;10218;42.874;25.320;2022-08-01T09:48:23;96761.03;;;27.05;39.28
20115;BME280;10218;42.874;25.320;2022-08-01T09:50:51;96755.03;;;26.59;40.20
20115;BME280;10218;42.874;25.320;2022-08-01T09:53:19;96750.69;;;28.07;38.19
20115;BME280;10218;42.874;25.320;2022-08-01T09:55:46;96750.59;;;27.36;39.53
20115;BME280;10218;42.874;25.320;2022-08-01T09:58:14;96754.06;;;27.75;39.40
20115;BME280;10218;42.874;25.320;2022-08-01T10:00:41;96758.34;;;27.62;38.92
20115;BME280;10218;42.874;25.320;2022-08-01T10:03:24;96749.34;;;28.47;37.60
20115;BME280;10218;42.874;25.320;2022-08-01T10:05:52;96760.84;;;27.83;38.28
20115;BME280;10218;42.874;25.320;2022-08-01T10:08:20;96747.63;;;26.98;40.42
20115;BME280;10218;42.874;25.320;2022-08-01T10:11:09;96751.03;;;27.19;39.82
20115;BME280;10218;42.874;25.320;2022-08-01T10:13:37;96758.94;;;28.49;38.24
20115;BME280;10218;42.874;25.320;2022-08-01T10:16:06;96754.94;;;29.76;37.04
20115;BME280;10218;42.874;25.320;2022-08-01T10:18:34;96744.38;;;29.38;36.46
20115;BME280;10218;42.874;25.320;2022-08-01T10:21:03;96746.19;;;29.61;37.30
20115;BME280;10218;42.874;25.320;2022-08-01T10:23:34;96747.37;;;29.55;36.92
20115;BME280;10218;42.874;25.320;2022-08-01T10:26:02;96746.09;;;28.82;36.82
20115;BME280;10218;42.874;25.320;2022-08-01T10:28:31;96738.16;;;28.81;38.13
20115;BME280;10218;42.874;25.320;2022-08-01T10:31:01;96757.44;;;28.38;38.22
20115;BME280;10218;42.874;25.320;2022-08-01T10:33:30;96752.78;;;29.27;36.64
20115;BME280;10218;42.874;25.320;2022-08-01T10:35:57;96739.84;;;30.56;35.36
20115;BME280;10218;42.874;25.320;2022-08-01T10:38:27;96746.19;;;29.88;35.43
20115;BME280;10218;42.874;25.320;2022-08-01T10:40:57;96742.34;;;28.36;37.47
20115;BME280;10218;42.874;25.320;2022-08-01T10:43:26;96743.28;;;29.52;36.26
20115;BME280;10218;42.874;25.320;2022-08-01T10:45:55;96748.84;;;30.48;34.73
20115;BME280;10218;42.874;25.320;2022-08-01T10:51:29;96725.44;;;28.66;37.16
20115;BME280;10218;42.874;25.320;2022-08-01T10:53:56;96732.19;;;28.92;37.13
20115;BME280;10218;42.874;25.320;2022-08-01T10:56:24;96743.25;;;29.98;35.62
20115;BME280;10218;42.874;25.320;2022-08-01T10:59:03;96741.50;;;30.30;35.17
20115;BME280;10218;42.874;25.320;2022-08-01T11:01:30;96741.28;;;30.40;34.77
20115;BME280;10218;42.874;25.320;2022-08-01T11:04:12;96731.41;;;27.88;37.60
20115;BME280;10218;42.874;25.320;2022-08-01T11:07:07;96725.97;;;28.49;37.36
20115;BME280;10218;42.874;25.320;2022-08-01T11:09:47;96743.34;;;29.80;35.32
20115;BME280;10218;42.874;25.320;2022-08-01T11:12:19;96756.00;;;30.49;34.56
20115;BME280;10218;42.874;25.320;2022-08-01T11:17:45;96733.34;;;29.70;35.25
20115;BME280;10218;42.874;25.320;2022-08-01T11:20:19;96739.84;;;30.56;34.78
20115;BME280;10218;42.874;25.320;2022-08-01T11:33:55;96709.56;;;29.14;37.34
20115;BME280;10218;42.874;25.320;2022-08-01T11:36:24;96735.25;;;28.72;37.00
20115;BME280;10218;42.874;25.320;2022-08-01T11:41:34;96724.53;;;28.71;37.87
20115;BME280;10218;42.874;25.320;2022-08-01T11:44:07;96727.88;;;29.05;36.24
20115;BME280;10218;42.874;25.320;2022-08-01T11:52:11;96732.00;;;30.85;34.18
20115;BME280;10218;42.874;25.320;2022-08-01T11:54:55;96720.62;;;30.65;34.75
20115;BME280;10218;42.874;25.320;2022-08-01T11:57:29;96717.66;;;31.50;33.13
20115;BME280;10218;42.874;25.320;2022-08-01T12:02:37;96712.91;;;31.11;33.08
20115;BME280;10218;42.874;25.320;2022-08-01T12:07:33;96713.63;;;31.78;33.19
20115;BME280;10218;42.874;25.320;2022-08-01T12:10:15;96712.97;;;33.59;30.45
20115;BME280;10218;42.874;25.320;2022-08-01T12:15:11;96707.28;;;33.55;30.60
20115;BME280;10218;42.874;25.320;2022-08-01T12:17:45;96700.03;;;32.99;30.22
20115;BME280;10218;42.874;25.320;2022-08-01T12:20:15;96701.66;;;32.83;30.20
20115;BME280;10218;42.874;25.320;2022-08-01T12:22:43;96701.78;;;31.87;32.45
20115;BME280;10218;42.874;25.320;2022-08-01T12:25:15;96711.75;;;33.30;30.50
20115;BME280;10218;42.874;25.320;2022-08-01T12:27:45;96705.44;;;34.64;28.73
20115;BME280;10218;42.874;25.320;2022-08-01T12:30:17;96697.66;;;33.52;29.60
20115;BME280;10218;42.874;25.320;2022-08-01T12:32:46;96707.13;;;32.31;30.62
20115;BME280;10218;42.874;25.320;2022-08-01T12:35:25;96698.41;;;31.90;31.38
20115;BME280;10218;42.874;25.320;2022-08-01T12:37:58;96698.06;;;32.39;31.23
20115;BME280;10218;42.874;25.320;2022-08-01T12:40:30;96697.19;;;32.21;30.89
20115;BME280;10218;42.874;25.320;2022-08-01T12:43:03;96683.13;;;32.01;32.70
20115;BME280;10218;42.874;25.320;2022-08-01T12:48:01;96688.94;;;31.51;32.31
20115;BME280;10218;42.874;25.320;2022-08-01T12:50:30;96689.62;;;31.96;31.79
20115;BME280;10218;42.874;25.320;2022-08-01T12:52:58;96690.09;;;32.63;30.98
20115;BME280;10218;42.874;25.320;2022-08-01T12:55:26;96681.03;;;31.98;31.99
20115;BME280;10218;42.874;25.320;2022-08-01T12:58:05;96678.22;;;29.29;34.74
20115;BME280;10218;42.874;25.320;2022-08-01T13:00:36;96674.31;;;30.75;33.18
20115;BME280;10218;42.874;25.320;2022-08-01T13:03:08;96671.41;;;30.08;34.11
20115;BME280;10218;42.874;25.320;2022-08-01T13:08:12;96674.28;;;30.17;33.78
20115;BME280;10218;42.874;25.320;2022-08-01T13:10:40;96669.19;;;29.56;35.08
20115;BME280;10218;42.874;25.320;2022-08-01T13:13:08;96671.28;;;29.31;35.63
20115;BME280;10218;42.874;25.320;2022-08-01T13:15:38;96664.59;;;29.38;35.76
20115;BME280;10218;42.874;25.320;2022-08-01T13:18:29;96669.19;;;28.77;35.58
20115;BME280;10218;42.874;25.320;2022-08-01T13:23:38;96670.56;;;32.34;31.02
20115;BME280;10218;42.874;25.320;2022-08-01T13:26:06;96664.91;;;29.50;33.88
20115;BME280;10218;42.874;25.320;2022-08-01T13:28:33;96669.84;;;29.20;35.15
20115;BME280;10218;42.874;25.320;2022-08-01T13:31:06;96677.59;;;30.41;32.90
20115;BME280;10218;42.874;25.320;2022-08-01T13:33:47;96667.25;;;29.97;33.40
20115;BME280;10218;42.874;25.320;2022-08-01T13:36:14;96664.03;;;32.21;30.88
20115;BME280;10218;42.874;25.320;2022-08-01T13:38:41;96647.31;;;31.39;31.51
20115;BME280;10218;42.874;25.320;2022-08-01T13:41:27;96671.72;;;32.85;30.82
20115;BME280;10218;42.874;25.320;2022-08-01T13:43:54;96662.69;;;34.86;27.94
20115;BME280;10218;42.874;25.320;2022-08-01T13:46:21;96658.84;;;35.11;27.20
20115;BME280;10218;42.874;25.320;2022-08-01T13:48:49;96669.03;;;34.45;27.89
20115;BME280;10218;42.874;25.320;2022-08-01T13:51:16;96673.09;;;33.42;29.69
20115;BME280;10218;42.874;25.320;2022-08-01T13:53:47;96667.44;;;32.27;30.32
20115;BME280;10218;42.874;25.320;2022-08-01T13:56:14;96666.00;;;31.42;32.72
20115;BME280;10218;42.874;25.320;2022-08-01T13:58:44;96669.34;;;30.64;32.60
20115;BME280;10218;42.874;25.320;2022-08-01T14:01:11;96663.34;;;28.84;35.01
20115;BME280;10218;42.874;25.320;2022-08-01T14:03:39;96656.84;;;29.67;34.48
20115;BME280;10218;42.874;25.320;2022-08-01T14:06:06;96665.09;;;31.24;32.24
20115;BME280;10218;42.874;25.320;2022-08-01T14:08:33;96660.97;;;30.69;32.88